createdAt,value
2019-05-17T15:19:09.511Z,32.97
2019-05-17T18:01:05.182Z,32.27
2019-05-17T18:03:37.208Z,32.28
2019-05-17T18:06:10.487Z,32.44
2019-05-17T18:08:43.305Z,32.65
2019-05-17T18:11:16.435Z,32.86
2019-05-17T18:13:50.071Z,32.96
2019-05-17T18:16:25.885Z,33.10
2019-05-17T18:18:58.608Z,33.18
2019-05-17T18:21:31.296Z,33.24
2019-05-17T18:24:04.326Z,33.41
2019-05-17T18:26:37.580Z,33.47
2019-05-17T18:29:13.836Z,33.47
2019-05-17T18:31:46.923Z,33.45
2019-05-17T18:34:19.969Z,33.46
2019-05-17T18:36:53.602Z,33.47
2019-05-17T18:39:27.802Z,33.47
2019-05-17T18:42:00.984Z,33.39
2019-05-17T18:44:34.002Z,33.37
2019-05-17T18:47:06.524Z,33.47
2019-05-17T18:49:38.916Z,33.46
2019-05-17T18:52:12.197Z,33.49
2019-05-17T18:54:45.018Z,33.51
2019-05-17T18:57:17.977Z,33.54
2019-05-17T18:59:50.577Z,33.51
2019-05-17T19:02:23.939Z,33.53
2019-05-17T19:04:56.878Z,33.54
2019-05-17T19:07:30.871Z,33.38
2019-05-17T19:10:03.420Z,33.48
2019-05-17T19:12:36.720Z,33.42
2019-05-17T19:15:10.603Z,33.42
2019-05-17T19:17:43.155Z,33.36
2019-05-17T19:20:16.921Z,33.33
2019-05-17T19:22:50.135Z,33.28
2019-05-17T19:25:22.904Z,33.27
2019-05-17T19:27:56.252Z,33.34
2019-05-17T19:30:30.209Z,33.31
2019-05-17T19:33:03.455Z,33.27
2019-05-17T19:35:37.693Z,33.24
2019-05-17T19:38:10.846Z,33.27
2019-05-17T19:40:43.283Z,33.30
2019-05-17T19:43:15.749Z,33.28
2019-05-17T19:45:48.794Z,33.32
2019-05-17T19:48:21.796Z,33.25
2019-05-17T19:50:57.993Z,33.22
2019-05-17T19:53:30.256Z,33.16
2019-05-17T19:56:03.166Z,33.25
2019-05-17T19:58:35.984Z,33.29
2019-05-17T20:01:08.784Z,33.16
2019-05-17T20:03:41.835Z,33.29
2019-05-17T20:06:14.917Z,33.20
2019-05-17T20:08:47.771Z,33.15
2019-05-17T20:11:33.650Z,33.15
2019-05-17T20:13:55.756Z,33.10
2019-05-17T20:16:39.241Z,33.07
2019-05-17T20:19:12.284Z,33.18
2019-05-17T20:21:44.974Z,33.17
2019-05-17T20:24:18.658Z,33.10
2019-05-17T20:27:01.101Z,33.19
2019-05-17T20:29:34.651Z,33.23
2019-05-17T20:32:07.624Z,33.16
2019-05-17T20:34:40.151Z,33.22
2019-05-17T20:37:13.262Z,33.09
2019-05-17T20:39:46.503Z,33.17
2019-05-17T20:42:19.258Z,33.00
2019-05-17T20:44:51.468Z,33.15
2019-05-17T20:47:31.922Z,33.07
2019-05-17T20:50:05.567Z,33.14
2019-05-17T20:52:38.197Z,33.12
2019-05-17T20:55:10.955Z,33.08
2019-05-17T20:57:44.220Z,33.22
2019-05-17T21:00:17.361Z,33.08
2019-05-17T21:02:50.578Z,33.19
2019-05-17T21:05:24.301Z,33.07
2019-05-17T21:07:56.958Z,33.14
2019-05-17T21:10:29.532Z,33.00
2019-05-17T21:13:02.269Z,33.05
2019-05-17T21:15:47.031Z,33.05
2019-05-17T21:18:08.690Z,33.08
2019-05-17T21:20:41.275Z,33.14
2019-05-17T21:23:13.884Z,33.09
2019-05-17T21:25:47.328Z,33.08
2019-05-17T21:28:19.980Z,33.07
2019-05-17T21:30:53.648Z,32.94
2019-05-17T21:33:26.742Z,32.96
2019-05-17T21:36:00.260Z,32.91
2019-05-17T21:38:33.179Z,33.12
2019-05-17T21:41:05.224Z,33.00
2019-05-17T21:43:38.907Z,33.10
2019-05-17T21:46:11.940Z,33.01
2019-05-17T21:48:51.758Z,33.08
2019-05-17T21:51:24.016Z,33.06
2019-05-17T21:53:59.709Z,33.31
2019-05-17T21:56:32.571Z,33.27
2019-05-17T21:59:05.003Z,33.02
2019-05-17T22:01:45.296Z,33.27
2019-05-17T22:04:18.222Z,33.11
2019-05-17T22:06:51.958Z,33.45
2019-05-17T22:09:24.868Z,33.26
2019-05-17T22:12:00.291Z,33.45
2019-05-17T22:14:33.333Z,33.39
2019-05-17T22:17:06.302Z,33.49
2019-05-17T22:19:38.638Z,33.57
2019-05-17T22:22:18.071Z,33.39
2019-05-17T22:24:51.101Z,33.59
2019-05-17T22:27:23.742Z,33.33
2019-05-17T22:29:56.656Z,33.58
2019-05-17T22:32:30.319Z,33.45
2019-05-17T22:35:09.102Z,33.52
2019-05-17T22:37:41.778Z,33.40
2019-05-17T22:40:14.421Z,33.47
2019-05-17T22:42:47.213Z,33.52
2019-05-17T22:45:20.234Z,33.32
2019-05-17T22:47:53.146Z,33.29
2019-05-17T22:50:33.930Z,33.29
2019-05-17T22:53:07.354Z,33.48
2019-05-17T22:55:42.423Z,33.44
2019-05-17T22:58:15.530Z,33.44
2019-05-17T23:00:58.024Z,33.57
2019-05-17T23:03:31.849Z,33.29
2019-05-17T23:06:05.206Z,33.43
2019-05-17T23:08:38.107Z,33.36
2019-05-17T23:11:11.157Z,33.42
2019-05-17T23:13:44.185Z,33.32
2019-05-17T23:16:17.342Z,33.25
2019-05-17T23:18:52.852Z,33.26
2019-05-17T23:21:25.674Z,33.05
2019-05-17T23:23:58.802Z,33.27
2019-05-17T23:26:38.268Z,33.18
2019-05-17T23:29:12.136Z,33.23
2019-05-17T23:31:45.050Z,33.19
2019-05-17T23:34:25.094Z,33.11
2019-05-17T23:36:59.713Z,33.17
2019-05-17T23:39:35.085Z,33.24
2019-05-17T23:42:07.831Z,33.15
2019-05-17T23:44:40.639Z,33.15
2019-05-17T23:50:12.234Z,33.13
2019-05-17T23:52:45.841Z,33.23
2019-05-17T23:55:18.949Z,33.17
2019-05-17T23:57:52.264Z,33.40
